Impacts METAR Board
IDs:

KDAB - Daytona Beach Intl, FL, US

Updated at: 1900 UTC 02 Oct 2022
Potential Impact None Slight Moderate High
Time 02/07Z 02/08Z 02/09Z 02/10Z 02/11Z 02/12Z 02/13Z 02/14Z 02/15Z 02/16Z 02/17Z 02/18Z 02/19Z
Temp69 68 67 67 66 67 71 75 80 82 84 85 86
Dewpt64 64 63 63 63 64 65 62 62 59 55 52 54
Altim29.90 29.89 29.88 29.88 29.90 29.92 29.93 29.94 29.94 29.93 29.91 29.88 29.86
VIS10 10 10 10 10 10 10 10 10 10 10 10 10
CIG-- -- -- -- -- -- -- -- -- -- -- -- --
CoverCLRCLRCLRCLRCLRCLRCLRCLRCLRCLRCLRCLRCLR
FltCatVFRVFRVFRVFRVFRVFRVFRVFRVFRVFRVFRVFRVFR
WX--------------------------
WDir240230250240230240260310270260260300300
WSpd4 3 4 4 4 3 5 7 7 9 9 10 10
WGst-- -- -- -- -- -- -- -- -- -- -- -- --
Raw hourly METARs
KDAB 020653Z 24004KT 10SM CLR 21/18 A2990 RMK AO2 SLP124 T02060178
KDAB 020753Z 23003KT 10SM CLR 20/18 A2989 RMK AO2 SLP120 T02000178
KDAB 020853Z 25004KT 10SM CLR 19/17 A2988 RMK AO2 SLP117 T01940172 56011
KDAB 020953Z 24004KT 10SM CLR 19/17 A2988 RMK AO2 SLP119 T01940172
KDAB 021053Z 23004KT 10SM CLR 19/17 A2990 RMK AO2 SLP123 T01890172
KDAB 021153Z 24003KT 10SM CLR 19/18 A2992 RMK AO2 SLP130 T01940178 10211 20189 53013
KDAB 021253Z 26005KT 10SM CLR 22/18 A2993 RMK AO2 SLP134 T02170183
KDAB 021353Z 31007KT 10SM CLR 24/17 A2994 RMK AO2 SLP136 T02390167
KDAB 021453Z 27007KT 10SM CLR 27/17 A2994 RMK AO2 SLP136 T02670167 51007
KDAB 021553Z 26009KT 10SM CLR 28/15 A2993 RMK AO2 SLP133 T02780150
KDAB 021653Z 26009KT 10SM CLR 29/13 A2991 RMK AO2 SLP128 T02890128
KDAB 021753Z 30010KT 10SM CLR 29/11 A2988 RMK AO2 SLP119 T02940111 10294 20194 58018
KDAB 021853Z 30010KT 10SM CLR 30/12 A2986 RMK AO2 SLP111 T03000122



Page loaded:  19:01 UTC  |   12:01 PM Pacific  |   01:01 PM Mountain  |   02:01 PM Central  |   03:01 PM Eastern

 

ADVISORIES

FORECASTS

FORECASTS

OBSERVATIONS

USER TOOLS

ABOUT US